sensor_id;sensor_type;location;lat;lon;timestamp;P1;durP1;ratioP1;P2;durP2;ratioP2
66523;SDS011;53350;52.210;5.160;2023-05-24T00:00:29;12.25;;;2.90;;
66523;SDS011;53350;52.210;5.160;2023-05-24T00:02:56;16.23;;;2.95;;
66523;SDS011;53350;52.210;5.160;2023-05-24T00:05:23;19.58;;;3.40;;
66523;SDS011;53350;52.210;5.160;2023-05-24T00:07:49;15.90;;;2.80;;
66523;SDS011;53350;52.210;5.160;2023-05-24T00:10:17;17.02;;;3.13;;
66523;SDS011;53350;52.210;5.160;2023-05-24T00:12:44;16.70;;;2.92;;
66523;SDS011;53350;52.210;5.160;2023-05-24T00:15:10;11.77;;;2.78;;
66523;SDS011;53350;52.210;5.160;2023-05-24T00:17:37;18.23;;;3.10;;
66523;SDS011;53350;52.210;5.160;2023-05-24T00:20:06;15.82;;;3.28;;
66523;SDS011;53350;52.210;5.160;2023-05-24T00:22:35;15.80;;;3.13;;
66523;SDS011;53350;52.210;5.160;2023-05-24T00:25:01;16.45;;;2.90;;
66523;SDS011;53350;52.210;5.160;2023-05-24T00:27:30;16.13;;;3.53;;
66523;SDS011;53350;52.210;5.160;2023-05-24T00:29:56;16.50;;;3.05;;
66523;SDS011;53350;52.210;5.160;2023-05-24T00:32:23;16.27;;;2.58;;
66523;SDS011;53350;52.210;5.160;2023-05-24T00:34:49;12.02;;;2.78;;
66523;SDS011;53350;52.210;5.160;2023-05-24T00:37:16;11.65;;;2.90;;
66523;SDS011;53350;52.210;5.160;2023-05-24T00:39:42;15.02;;;3.50;;
66523;SDS011;53350;52.210;5.160;2023-05-24T00:42:09;15.63;;;2.60;;
66523;SDS011;53350;52.210;5.160;2023-05-24T00:44:37;16.40;;;3.22;;
66523;SDS011;53350;52.210;5.160;2023-05-24T00:47:03;13.75;;;2.88;;
66523;SDS011;53350;52.210;5.160;2023-05-24T00:49:30;15.60;;;3.10;;
66523;SDS011;53350;52.210;5.160;2023-05-24T00:51:56;13.68;;;2.10;;
66523;SDS011;53350;52.210;5.160;2023-05-24T00:54:24;15.48;;;3.03;;
66523;SDS011;53350;52.210;5.160;2023-05-24T00:56:51;18.73;;;3.55;;
66523;SDS011;53350;52.210;5.160;2023-05-24T00:59:18;20.65;;;3.10;;
66523;SDS011;53350;52.210;5.160;2023-05-24T01:01:46;15.40;;;2.83;;
66523;SDS011;53350;52.210;5.160;2023-05-24T01:04:12;20.08;;;3.45;;
66523;SDS011;53350;52.210;5.160;2023-05-24T01:06:43;11.68;;;2.78;;
66523;SDS011;53350;52.210;5.160;2023-05-24T01:09:22;15.70;;;2.78;;
66523;SDS011;53350;52.210;5.160;2023-05-24T01:11:57;15.05;;;3.22;;
66523;SDS011;53350;52.210;5.160;2023-05-24T01:14:34;12.18;;;2.95;;
66523;SDS011;53350;52.210;5.160;2023-05-24T01:17:12;15.02;;;2.63;;
66523;SDS011;53350;52.210;5.160;2023-05-24T01:19:51;11.77;;;2.55;;
66523;SDS011;53350;52.210;5.160;2023-05-24T01:22:28;17.10;;;3.63;;
66523;SDS011;53350;52.210;5.160;2023-05-24T01:25:07;16.88;;;3.45;;
66523;SDS011;53350;52.210;5.160;2023-05-24T01:27:41;14.90;;;3.08;;
66523;SDS011;53350;52.210;5.160;2023-05-24T01:30:09;14.85;;;2.95;;
66523;SDS011;53350;52.210;5.160;2023-05-24T01:32:37;14.93;;;2.97;;
66523;SDS011;53350;52.210;5.160;2023-05-24T01:35:03;15.35;;;3.42;;
66523;SDS011;53350;52.210;5.160;2023-05-24T01:37:30;19.73;;;3.08;;
66523;SDS011;53350;52.210;5.160;2023-05-24T01:39:57;17.08;;;3.85;;
66523;SDS011;53350;52.210;5.160;2023-05-24T01:42:25;13.57;;;3.30;;
66523;SDS011;53350;52.210;5.160;2023-05-24T01:45:03;13.38;;;3.03;;
66523;SDS011;53350;52.210;5.160;2023-05-24T01:47:38;17.00;;;3.90;;
66523;SDS011;53350;52.210;5.160;2023-05-24T01:50:13;17.13;;;3.20;;
66523;SDS011;53350;52.210;5.160;2023-05-24T01:52:43;15.13;;;3.55;;
66523;SDS011;53350;52.210;5.160;2023-05-24T01:55:12;19.58;;;3.40;;
66523;SDS011;53350;52.210;5.160;2023-05-24T01:57:42;16.40;;;3.10;;
66523;SDS011;53350;52.210;5.160;2023-05-24T02:00:12;16.33;;;3.22;;
66523;SDS011;53350;52.210;5.160;2023-05-24T02:02:41;16.90;;;3.38;;
66523;SDS011;53350;52.210;5.160;2023-05-24T02:05:08;15.13;;;3.03;;
66523;SDS011;53350;52.210;5.160;2023-05-24T02:07:34;12.88;;;3.38;;
66523;SDS011;53350;52.210;5.160;2023-05-24T02:10:01;12.70;;;3.17;;
66523;SDS011;53350;52.210;5.160;2023-05-24T02:12:28;15.15;;;3.08;;
66523;SDS011;53350;52.210;5.160;2023-05-24T02:14:55;16.90;;;3.22;;
66523;SDS011;53350;52.210;5.160;2023-05-24T02:17:23;16.65;;;3.38;;
66523;SDS011;53350;52.210;5.160;2023-05-24T02:19:50;13.25;;;2.92;;
66523;SDS011;53350;52.210;5.160;2023-05-24T02:22:17;15.10;;;3.50;;
66523;SDS011;53350;52.210;5.160;2023-05-24T02:24:46;15.07;;;3.58;;
66523;SDS011;53350;52.210;5.160;2023-05-24T02:27:13;13.68;;;3.70;;
66523;SDS011;53350;52.210;5.160;2023-05-24T02:29:40;12.77;;;2.92;;
66523;SDS011;53350;52.210;5.160;2023-05-24T02:32:06;17.38;;;3.42;;
66523;SDS011;53350;52.210;5.160;2023-05-24T02:34:34;13.32;;;3.13;;
66523;SDS011;53350;52.210;5.160;2023-05-24T02:37:01;11.98;;;3.03;;
66523;SDS011;53350;52.210;5.160;2023-05-24T02:39:28;10.97;;;2.73;;
66523;SDS011;53350;52.210;5.160;2023-05-24T02:41:55;13.05;;;3.08;;
66523;SDS011;53350;52.210;5.160;2023-05-24T02:44:21;13.27;;;2.92;;
66523;SDS011;53350;52.210;5.160;2023-05-24T02:46:47;11.50;;;2.30;;
66523;SDS011;53350;52.210;5.160;2023-05-24T02:49:14;11.88;;;2.75;;
66523;SDS011;53350;52.210;5.160;2023-05-24T02:51:42;11.43;;;2.90;;
66523;SDS011;53350;52.210;5.160;2023-05-24T02:54:08;9.45;;;2.65;;
66523;SDS011;53350;52.210;5.160;2023-05-24T02:56:35;10.90;;;2.75;;
66523;SDS011;53350;52.210;5.160;2023-05-24T02:59:01;15.43;;;3.00;;
66523;SDS011;53350;52.210;5.160;2023-05-24T03:01:27;12.30;;;3.08;;
66523;SDS011;53350;52.210;5.160;2023-05-24T03:03:54;17.02;;;3.38;;
66523;SDS011;53350;52.210;5.160;2023-05-24T03:06:21;17.15;;;3.10;;
66523;SDS011;53350;52.210;5.160;2023-05-24T03:08:48;17.58;;;2.88;;
66523;SDS011;53350;52.210;5.160;2023-05-24T03:11:15;13.75;;;2.65;;
66523;SDS011;53350;52.210;5.160;2023-05-24T03:13:45;13.88;;;2.70;;
66523;SDS011;53350;52.210;5.160;2023-05-24T03:16:12;11.65;;;2.92;;
66523;SDS011;53350;52.210;5.160;2023-05-24T03:18:38;12.63;;;3.00;;
66523;SDS011;53350;52.210;5.160;2023-05-24T03:21:05;12.38;;;2.75;;
66523;SDS011;53350;52.210;5.160;2023-05-24T03:23:31;14.00;;;2.75;;
66523;SDS011;53350;52.210;5.160;2023-05-24T03:25:59;15.20;;;2.78;;
66523;SDS011;53350;52.210;5.160;2023-05-24T03:28:25;14.15;;;2.85;;
66523;SDS011;53350;52.210;5.160;2023-05-24T03:30:52;11.48;;;2.50;;
66523;SDS011;53350;52.210;5.160;2023-05-24T03:33:19;13.73;;;3.00;;
66523;SDS011;53350;52.210;5.160;2023-05-24T03:35:45;19.42;;;2.95;;
66523;SDS011;53350;52.210;5.160;2023-05-24T03:38:12;12.65;;;2.85;;
66523;SDS011;53350;52.210;5.160;2023-05-24T03:40:38;9.98;;;2.50;;
66523;SDS011;53350;52.210;5.160;2023-05-24T03:43:06;14.52;;;3.00;;
66523;SDS011;53350;52.210;5.160;2023-05-24T03:45:32;9.88;;;2.38;;
66523;SDS011;53350;52.210;5.160;2023-05-24T03:47:59;11.23;;;2.80;;
66523;SDS011;53350;52.210;5.160;2023-05-24T03:50:25;11.55;;;2.97;;
66523;SDS011;53350;52.210;5.160;2023-05-24T03:52:51;14.68;;;2.92;;
66523;SDS011;53350;52.210;5.160;2023-05-24T03:55:18;12.13;;;2.78;;
66523;SDS011;53350;52.210;5.160;2023-05-24T03:57:44;14.50;;;3.00;;
66523;SDS011;53350;52.210;5.160;2023-05-24T04:00:13;8.73;;;2.50;;
66523;SDS011;53350;52.210;5.160;2023-05-24T04:02:39;13.68;;;2.95;;
66523;SDS011;53350;52.210;5.160;2023-05-24T04:05:06;10.88;;;3.40;;
66523;SDS011;53350;52.210;5.160;2023-05-24T04:07:34;9.35;;;3.03;;
66523;SDS011;53350;52.210;5.160;2023-05-24T04:10:01;11.40;;;2.67;;
66523;SDS011;53350;52.210;5.160;2023-05-24T04:12:28;14.18;;;3.92;;
66523;SDS011;53350;52.210;5.160;2023-05-24T04:14:55;10.68;;;3.35;;
66523;SDS011;53350;52.210;5.160;2023-05-24T04:17:23;13.70;;;3.53;;
66523;SDS011;53350;52.210;5.160;2023-05-24T04:19:49;14.82;;;3.45;;
66523;SDS011;53350;52.210;5.160;2023-05-24T04:22:16;18.10;;;3.63;;
66523;SDS011;53350;52.210;5.160;2023-05-24T04:24:42;15.40;;;3.38;;
66523;SDS011;53350;52.210;5.160;2023-05-24T04:27:09;14.23;;;3.53;;
66523;SDS011;53350;52.210;5.160;2023-05-24T04:29:37;16.35;;;3.45;;
66523;SDS011;53350;52.210;5.160;2023-05-24T04:32:04;16.02;;;3.63;;
66523;SDS011;53350;52.210;5.160;2023-05-24T04:34:32;17.85;;;3.83;;
66523;SDS011;53350;52.210;5.160;2023-05-24T04:36:59;13.50;;;3.55;;
66523;SDS011;53350;52.210;5.160;2023-05-24T04:39:26;16.73;;;3.80;;
66523;SDS011;53350;52.210;5.160;2023-05-24T04:41:52;20.83;;;5.30;;
66523;SDS011;53350;52.210;5.160;2023-05-24T04:44:20;18.02;;;3.97;;
66523;SDS011;53350;52.210;5.160;2023-05-24T04:46:46;13.48;;;3.70;;
66523;SDS011;53350;52.210;5.160;2023-05-24T04:49:13;12.18;;;4.55;;
66523;SDS011;53350;52.210;5.160;2023-05-24T04:51:41;16.58;;;4.32;;
66523;SDS011;53350;52.210;5.160;2023-05-24T04:54:07;17.67;;;4.22;;
66523;SDS011;53350;52.210;5.160;2023-05-24T04:56:34;14.13;;;3.85;;
66523;SDS011;53350;52.210;5.160;2023-05-24T04:59:02;13.82;;;3.65;;
66523;SDS011;53350;52.210;5.160;2023-05-24T05:01:29;17.55;;;3.72;;
66523;SDS011;53350;52.210;5.160;2023-05-24T05:03:56;13.63;;;3.80;;
66523;SDS011;53350;52.210;5.160;2023-05-24T05:06:22;15.50;;;3.95;;
66523;SDS011;53350;52.210;5.160;2023-05-24T05:08:51;17.10;;;4.30;;
66523;SDS011;53350;52.210;5.160;2023-05-24T05:11:17;19.52;;;4.35;;
66523;SDS011;53350;52.210;5.160;2023-05-24T05:13:44;16.63;;;4.20;;
66523;SDS011;53350;52.210;5.160;2023-05-24T05:16:11;17.30;;;4.47;;
66523;SDS011;53350;52.210;5.160;2023-05-24T05:18:38;20.40;;;4.90;;
66523;SDS011;53350;52.210;5.160;2023-05-24T05:21:05;21.65;;;5.30;;
66523;SDS011;53350;52.210;5.160;2023-05-24T05:23:31;19.98;;;4.85;;
66523;SDS011;53350;52.210;5.160;2023-05-24T05:25:59;21.63;;;5.45;;
66523;SDS011;53350;52.210;5.160;2023-05-24T05:28:26;18.77;;;5.75;;
66523;SDS011;53350;52.210;5.160;2023-05-24T05:30:52;19.42;;;5.13;;
66523;SDS011;53350;52.210;5.160;2023-05-24T05:33:20;18.40;;;5.63;;
66523;SDS011;53350;52.210;5.160;2023-05-24T05:35:47;20.83;;;5.20;;
66523;SDS011;53350;52.210;5.160;2023-05-24T05:38:13;24.05;;;5.80;;
66523;SDS011;53350;52.210;5.160;2023-05-24T05:40:40;20.70;;;5.13;;
66523;SDS011;53350;52.210;5.160;2023-05-24T05:43:08;25.58;;;5.47;;
66523;SDS011;53350;52.210;5.160;2023-05-24T05:45:34;25.90;;;5.82;;
66523;SDS011;53350;52.210;5.160;2023-05-24T05:48:00;23.95;;;5.53;;
66523;SDS011;53350;52.210;5.160;2023-05-24T05:50:27;23.17;;;5.45;;
66523;SDS011;53350;52.210;5.160;2023-05-24T05:52:53;25.45;;;5.90;;
66523;SDS011;53350;52.210;5.160;2023-05-24T05:55:20;23.95;;;5.63;;
66523;SDS011;53350;52.210;5.160;2023-05-24T05:57:47;19.90;;;4.80;;
66523;SDS011;53350;52.210;5.160;2023-05-24T06:00:15;17.00;;;4.65;;
66523;SDS011;53350;52.210;5.160;2023-05-24T06:02:42;19.13;;;4.82;;
66523;SDS011;53350;52.210;5.160;2023-05-24T06:05:08;18.30;;;5.18;;
66523;SDS011;53350;52.210;5.160;2023-05-24T06:07:35;19.80;;;4.53;;
66523;SDS011;53350;52.210;5.160;2023-05-24T06:10:02;21.95;;;4.47;;
66523;SDS011;53350;52.210;5.160;2023-05-24T06:12:30;17.88;;;4.25;;
66523;SDS011;53350;52.210;5.160;2023-05-24T06:14:56;25.25;;;5.35;;
66523;SDS011;53350;52.210;5.160;2023-05-24T06:17:24;18.63;;;4.15;;
66523;SDS011;53350;52.210;5.160;2023-05-24T06:19:52;22.55;;;4.07;;
66523;SDS011;53350;52.210;5.160;2023-05-24T06:22:19;17.10;;;3.70;;
66523;SDS011;53350;52.210;5.160;2023-05-24T06:24:46;23.30;;;3.88;;
66523;SDS011;53350;52.210;5.160;2023-05-24T06:27:13;20.02;;;4.07;;
66523;SDS011;53350;52.210;5.160;2023-05-24T06:29:40;20.88;;;3.47;;
66523;SDS011;53350;52.210;5.160;2023-05-24T06:32:06;16.67;;;4.00;;
66523;SDS011;53350;52.210;5.160;2023-05-24T06:34:34;20.98;;;3.65;;
66523;SDS011;53350;52.210;5.160;2023-05-24T06:37:00;18.45;;;3.65;;
66523;SDS011;53350;52.210;5.160;2023-05-24T06:39:27;13.70;;;2.65;;
66523;SDS011;53350;52.210;5.160;2023-05-24T06:41:53;19.85;;;3.78;;
66523;SDS011;53350;52.210;5.160;2023-05-24T06:44:19;16.25;;;2.90;;
66523;SDS011;53350;52.210;5.160;2023-05-24T06:46:47;19.48;;;3.22;;
66523;SDS011;53350;52.210;5.160;2023-05-24T06:49:13;14.65;;;3.65;;
66523;SDS011;53350;52.210;5.160;2023-05-24T06:51:41;16.50;;;3.22;;
66523;SDS011;53350;52.210;5.160;2023-05-24T06:54:08;14.40;;;2.60;;
66523;SDS011;53350;52.210;5.160;2023-05-24T06:56:35;17.52;;;3.13;;
66523;SDS011;53350;52.210;5.160;2023-05-24T06:59:01;14.73;;;3.10;;
66523;SDS011;53350;52.210;5.160;2023-05-24T07:01:28;14.52;;;2.75;;
66523;SDS011;53350;52.210;5.160;2023-05-24T07:03:54;16.95;;;3.05;;
66523;SDS011;53350;52.210;5.160;2023-05-24T07:06:20;19.58;;;3.28;;
66523;SDS011;53350;52.210;5.160;2023-05-24T07:08:48;15.13;;;3.00;;
66523;SDS011;53350;52.210;5.160;2023-05-24T07:11:15;18.48;;;3.35;;
66523;SDS011;53350;52.210;5.160;2023-05-24T07:13:41;19.75;;;3.42;;
66523;SDS011;53350;52.210;5.160;2023-05-24T07:16:08;23.98;;;3.30;;
66523;SDS011;53350;52.210;5.160;2023-05-24T07:18:35;16.58;;;3.00;;
66523;SDS011;53350;52.210;5.160;2023-05-24T07:21:02;15.52;;;2.88;;
66523;SDS011;53350;52.210;5.160;2023-05-24T07:23:28;16.98;;;3.55;;
66523;SDS011;53350;52.210;5.160;2023-05-24T07:25:56;15.15;;;3.30;;
66523;SDS011;53350;52.210;5.160;2023-05-24T07:28:22;17.73;;;3.10;;
66523;SDS011;53350;52.210;5.160;2023-05-24T07:30:49;17.88;;;3.70;;
66523;SDS011;53350;52.210;5.160;2023-05-24T07:33:15;14.00;;;2.67;;
66523;SDS011;53350;52.210;5.160;2023-05-24T07:35:42;17.35;;;2.80;;
66523;SDS011;53350;52.210;5.160;2023-05-24T07:38:09;15.32;;;3.08;;
66523;SDS011;53350;52.210;5.160;2023-05-24T07:40:36;20.25;;;3.10;;
66523;SDS011;53350;52.210;5.160;2023-05-24T07:43:04;13.02;;;2.47;;
66523;SDS011;53350;52.210;5.160;2023-05-24T07:45:31;18.75;;;3.17;;
66523;SDS011;53350;52.210;5.160;2023-05-24T07:47:57;13.75;;;3.03;;
66523;SDS011;53350;52.210;5.160;2023-05-24T07:50:25;17.98;;;3.72;;
66523;SDS011;53350;52.210;5.160;2023-05-24T07:52:53;18.75;;;3.47;;
66523;SDS011;53350;52.210;5.160;2023-05-24T07:55:20;18.48;;;3.80;;
66523;SDS011;53350;52.210;5.160;2023-05-24T07:57:46;14.90;;;2.92;;
66523;SDS011;53350;52.210;5.160;2023-05-24T08:00:15;17.92;;;3.13;;
66523;SDS011;53350;52.210;5.160;2023-05-24T08:02:42;13.32;;;3.50;;
66523;SDS011;53350;52.210;5.160;2023-05-24T08:05:10;15.75;;;3.53;;
66523;SDS011;53350;52.210;5.160;2023-05-24T08:07:37;15.55;;;3.28;;
66523;SDS011;53350;52.210;5.160;2023-05-24T08:10:05;18.60;;;3.85;;
66523;SDS011;53350;52.210;5.160;2023-05-24T08:12:32;14.95;;;3.35;;
66523;SDS011;53350;52.210;5.160;2023-05-24T08:14:58;12.80;;;2.30;;
66523;SDS011;53350;52.210;5.160;2023-05-24T08:17:26;19.85;;;3.95;;
66523;SDS011;53350;52.210;5.160;2023-05-24T08:19:53;16.20;;;3.35;;
66523;SDS011;53350;52.210;5.160;2023-05-24T08:22:20;17.00;;;2.95;;
66523;SDS011;53350;52.210;5.160;2023-05-24T08:24:46;15.95;;;3.28;;
66523;SDS011;53350;52.210;5.160;2023-05-24T08:27:13;14.93;;;3.03;;
66523;SDS011;53350;52.210;5.160;2023-05-24T08:29:39;16.17;;;3.33;;
66523;SDS011;53350;52.210;5.160;2023-05-24T08:32:06;17.10;;;2.90;;
66523;SDS011;53350;52.210;5.160;2023-05-24T08:34:34;14.90;;;3.70;;
66523;SDS011;53350;52.210;5.160;2023-05-24T08:39:28;11.02;;;2.72;;
66523;SDS011;53350;52.210;5.160;2023-05-24T08:41:54;12.02;;;2.80;;
66523;SDS011;53350;52.210;5.160;2023-05-24T08:44:22;19.83;;;2.95;;
66523;SDS011;53350;52.210;5.160;2023-05-24T08:46:49;15.27;;;3.40;;
66523;SDS011;53350;52.210;5.160;2023-05-24T08:49:18;18.35;;;3.13;;
66523;SDS011;53350;52.210;5.160;2023-05-24T08:51:46;16.77;;;3.20;;
66523;SDS011;53350;52.210;5.160;2023-05-24T08:54:15;12.38;;;3.05;;
66523;SDS011;53350;52.210;5.160;2023-05-24T08:56:41;17.85;;;3.22;;
66523;SDS011;53350;52.210;5.160;2023-05-24T08:59:08;19.83;;;3.60;;
66523;SDS011;53350;52.210;5.160;2023-05-24T09:01:37;19.50;;;3.83;;
66523;SDS011;53350;52.210;5.160;2023-05-24T09:04:05;18.70;;;3.65;;
66523;SDS011;53350;52.210;5.160;2023-05-24T09:06:33;14.23;;;3.50;;
66523;SDS011;53350;52.210;5.160;2023-05-24T09:09:01;14.60;;;3.08;;
66523;SDS011;53350;52.210;5.160;2023-05-24T09:13:56;13.05;;;3.28;;
66523;SDS011;53350;52.210;5.160;2023-05-24T09:16:23;12.40;;;2.85;;
66523;SDS011;53350;52.210;5.160;2023-05-24T09:18:50;15.65;;;2.80;;
66523;SDS011;53350;52.210;5.160;2023-05-24T09:21:16;11.82;;;2.90;;
66523;SDS011;53350;52.210;5.160;2023-05-24T09:23:44;16.80;;;3.13;;
66523;SDS011;53350;52.210;5.160;2023-05-24T09:26:12;13.07;;;3.40;;
66523;SDS011;53350;52.210;5.160;2023-05-24T09:28:38;18.08;;;3.95;;
66523;SDS011;53350;52.210;5.160;2023-05-24T09:31:05;11.93;;;2.67;;
66523;SDS011;53350;52.210;5.160;2023-05-24T09:33:33;16.75;;;3.40;;
66523;SDS011;53350;52.210;5.160;2023-05-24T09:36:01;15.00;;;3.35;;
66523;SDS011;53350;52.210;5.160;2023-05-24T09:38:28;15.82;;;3.40;;
66523;SDS011;53350;52.210;5.160;2023-05-24T09:40:58;15.23;;;3.30;;
66523;SDS011;53350;52.210;5.160;2023-05-24T09:43:27;14.70;;;3.60;;
66523;SDS011;53350;52.210;5.160;2023-05-24T09:45:55;17.73;;;4.18;;
66523;SDS011;53350;52.210;5.160;2023-05-24T09:48:24;15.73;;;3.13;;
66523;SDS011;53350;52.210;5.160;2023-05-24T09:50:58;12.00;;;3.00;;
66523;SDS011;53350;52.210;5.160;2023-05-24T09:53:27;14.02;;;3.80;;
66523;SDS011;53350;52.210;5.160;2023-05-24T09:55:54;17.83;;;3.63;;
66523;SDS011;53350;52.210;5.160;2023-05-24T09:58:20;14.93;;;3.63;;
66523;SDS011;53350;52.210;5.160;2023-05-24T10:00:48;14.18;;;2.83;;
66523;SDS011;53350;52.210;5.160;2023-05-24T10:03:15;14.18;;;3.40;;
66523;SDS011;53350;52.210;5.160;2023-05-24T10:05:43;15.40;;;3.83;;
66523;SDS011;53350;52.210;5.160;2023-05-24T10:08:10;13.30;;;3.25;;
66523;SDS011;53350;52.210;5.160;2023-05-24T10:10:38;14.55;;;3.40;;
66523;SDS011;53350;52.210;5.160;2023-05-24T10:13:04;18.70;;;4.00;;
66523;SDS011;53350;52.210;5.160;2023-05-24T10:15:31;14.35;;;3.78;;
66523;SDS011;53350;52.210;5.160;2023-05-24T10:17:59;11.48;;;2.90;;
66523;SDS011;53350;52.210;5.160;2023-05-24T10:20:32;20.08;;;4.13;;
66523;SDS011;53350;52.210;5.160;2023-05-24T10:22:59;21.38;;;3.75;;
66523;SDS011;53350;52.210;5.160;2023-05-24T10:25:29;18.45;;;3.72;;
66523;SDS011;53350;52.210;5.160;2023-05-24T10:28:00;12.48;;;3.03;;
66523;SDS011;53350;52.210;5.160;2023-05-24T10:30:30;11.07;;;2.95;;
66523;SDS011;53350;52.210;5.160;2023-05-24T10:33:01;14.63;;;3.75;;
66523;SDS011;53350;52.210;5.160;2023-05-24T10:35:31;16.40;;;3.45;;
66523;SDS011;53350;52.210;5.160;2023-05-24T10:38:04;16.20;;;3.50;;
66523;SDS011;53350;52.210;5.160;2023-05-24T10:40:31;17.10;;;3.25;;
66523;SDS011;53350;52.210;5.160;2023-05-24T10:42:58;15.30;;;3.55;;
66523;SDS011;53350;52.210;5.160;2023-05-24T10:45:28;15.00;;;3.50;;
66523;SDS011;53350;52.210;5.160;2023-05-24T10:48:00;18.08;;;3.70;;
66523;SDS011;53350;52.210;5.160;2023-05-24T10:50:32;12.05;;;3.00;;
66523;SDS011;53350;52.210;5.160;2023-05-24T10:53:09;17.70;;;3.35;;
66523;SDS011;53350;52.210;5.160;2023-05-24T10:55:49;13.10;;;3.10;;
66523;SDS011;53350;52.210;5.160;2023-05-24T10:58:17;12.93;;;3.08;;
66523;SDS011;53350;52.210;5.160;2023-05-24T11:00:44;15.20;;;3.80;;
66523;SDS011;53350;52.210;5.160;2023-05-24T11:03:14;13.07;;;3.03;;
66523;SDS011;53350;52.210;5.160;2023-05-24T11:05:48;13.43;;;2.97;;
66523;SDS011;53350;52.210;5.160;2023-05-24T11:08:20;15.48;;;3.35;;
66523;SDS011;53350;52.210;5.160;2023-05-24T11:10:48;13.90;;;3.47;;
66523;SDS011;53350;52.210;5.160;2023-05-24T11:13:15;17.20;;;3.42;;
66523;SDS011;53350;52.210;5.160;2023-05-24T11:15:48;10.95;;;2.88;;
66523;SDS011;53350;52.210;5.160;2023-05-24T11:18:20;10.70;;;2.75;;
66523;SDS011;53350;52.210;5.160;2023-05-24T11:20:48;13.68;;;3.28;;
66523;SDS011;53350;52.210;5.160;2023-05-24T11:23:15;9.43;;;2.35;;
66523;SDS011;53350;52.210;5.160;2023-05-24T11:25:42;11.85;;;3.03;;
66523;SDS011;53350;52.210;5.160;2023-05-24T11:28:10;15.02;;;3.00;;
66523;SDS011;53350;52.210;5.160;2023-05-24T11:30:40;11.90;;;3.00;;
66523;SDS011;53350;52.210;5.160;2023-05-24T11:33:12;15.52;;;3.35;;
66523;SDS011;53350;52.210;5.160;2023-05-24T11:35:41;13.52;;;3.25;;
66523;SDS011;53350;52.210;5.160;2023-05-24T11:40:35;11.55;;;2.33;;
66523;SDS011;53350;52.210;5.160;2023-05-24T11:43:04;10.43;;;2.40;;
66523;SDS011;53350;52.210;5.160;2023-05-24T11:45:31;18.75;;;3.08;;
66523;SDS011;53350;52.210;5.160;2023-05-24T11:47:57;13.93;;;3.00;;
66523;SDS011;53350;52.210;5.160;2023-05-24T11:50:28;11.40;;;2.88;;
66523;SDS011;53350;52.210;5.160;2023-05-24T11:53:01;13.23;;;2.92;;
66523;SDS011;53350;52.210;5.160;2023-05-24T11:55:28;13.35;;;2.97;;
66523;SDS011;53350;52.210;5.160;2023-05-24T11:57:57;13.82;;;2.70;;
66523;SDS011;53350;52.210;5.160;2023-05-24T12:00:24;12.27;;;3.03;;
66523;SDS011;53350;52.210;5.160;2023-05-24T12:02:51;12.65;;;2.60;;
66523;SDS011;53350;52.210;5.160;2023-05-24T12:05:18;13.70;;;3.33;;
66523;SDS011;53350;52.210;5.160;2023-05-24T12:07:44;12.98;;;2.95;;
66523;SDS011;53350;52.210;5.160;2023-05-24T12:12:41;11.50;;;3.20;;
66523;SDS011;53350;52.210;5.160;2023-05-24T12:15:09;16.23;;;3.03;;
66523;SDS011;53350;52.210;5.160;2023-05-24T12:17:36;11.48;;;2.38;;
66523;SDS011;53350;52.210;5.160;2023-05-24T12:20:03;12.27;;;3.08;;
66523;SDS011;53350;52.210;5.160;2023-05-24T12:22:30;12.45;;;2.50;;
66523;SDS011;53350;52.210;5.160;2023-05-24T12:24:57;13.60;;;3.20;;
66523;SDS011;53350;52.210;5.160;2023-05-24T12:27:25;12.43;;;2.75;;
66523;SDS011;53350;52.210;5.160;2023-05-24T12:29:54;10.40;;;2.85;;
66523;SDS011;53350;52.210;5.160;2023-05-24T12:32:21;15.15;;;3.45;;
66523;SDS011;53350;52.210;5.160;2023-05-24T12:34:48;10.13;;;2.55;;
66523;SDS011;53350;52.210;5.160;2023-05-24T12:37:14;12.43;;;2.63;;
66523;SDS011;53350;52.210;5.160;2023-05-24T12:39:42;6.68;;;2.00;;
66523;SDS011;53350;52.210;5.160;2023-05-24T12:42:09;6.75;;;2.05;;
66523;SDS011;53350;52.210;5.160;2023-05-24T12:44:37;11.57;;;2.97;;
66523;SDS011;53350;52.210;5.160;2023-05-24T12:47:05;8.70;;;2.15;;
66523;SDS011;53350;52.210;5.160;2023-05-24T12:51:59;6.93;;;1.83;;
66523;SDS011;53350;52.210;5.160;2023-05-24T12:54:26;10.27;;;2.30;;
66523;SDS011;53350;52.210;5.160;2023-05-24T12:56:54;8.88;;;2.40;;
66523;SDS011;53350;52.210;5.160;2023-05-24T12:59:21;8.40;;;2.00;;
66523;SDS011;53350;52.210;5.160;2023-05-24T13:01:49;8.18;;;2.28;;
66523;SDS011;53350;52.210;5.160;2023-05-24T13:04:17;8.25;;;2.08;;
66523;SDS011;53350;52.210;5.160;2023-05-24T13:09:12;9.65;;;2.15;;
66523;SDS011;53350;52.210;5.160;2023-05-24T13:11:39;8.45;;;2.22;;
66523;SDS011;53350;52.210;5.160;2023-05-24T13:14:06;7.80;;;2.10;;
66523;SDS011;53350;52.210;5.160;2023-05-24T13:16:33;8.93;;;2.50;;
66523;SDS011;53350;52.210;5.160;2023-05-24T13:19:01;9.23;;;2.60;;
66523;SDS011;53350;52.210;5.160;2023-05-24T13:21:28;8.73;;;2.53;;
66523;SDS011;53350;52.210;5.160;2023-05-24T13:23:54;12.10;;;2.60;;
66523;SDS011;53350;52.210;5.160;2023-05-24T13:26:21;11.05;;;2.58;;
66523;SDS011;53350;52.210;5.160;2023-05-24T13:28:48;9.18;;;2.47;;
66523;SDS011;53350;52.210;5.160;2023-05-24T13:31:14;9.32;;;2.40;;
66523;SDS011;53350;52.210;5.160;2023-05-24T13:33:41;9.02;;;2.38;;
66523;SDS011;53350;52.210;5.160;2023-05-24T13:36:09;7.80;;;2.20;;
66523;SDS011;53350;52.210;5.160;2023-05-24T13:38:36;9.60;;;2.50;;
66523;SDS011;53350;52.210;5.160;2023-05-24T13:41:03;7.88;;;2.40;;
66523;SDS011;53350;52.210;5.160;2023-05-24T13:43:29;10.07;;;2.65;;
66523;SDS011;53350;52.210;5.160;2023-05-24T13:45:56;8.30;;;2.33;;
66523;SDS011;53350;52.210;5.160;2023-05-24T13:48:22;11.20;;;2.60;;
66523;SDS011;53350;52.210;5.160;2023-05-24T13:50:49;7.72;;;2.55;;
66523;SDS011;53350;52.210;5.160;2023-05-24T13:53:17;8.23;;;2.20;;
66523;SDS011;53350;52.210;5.160;2023-05-24T13:55:43;11.68;;;2.60;;
66523;SDS011;53350;52.210;5.160;2023-05-24T13:58:09;10.45;;;2.75;;
66523;SDS011;53350;52.210;5.160;2023-05-24T14:00:36;13.05;;;2.85;;
66523;SDS011;53350;52.210;5.160;2023-05-24T14:03:02;9.60;;;2.83;;
66523;SDS011;53350;52.210;5.160;2023-05-24T14:05:30;11.25;;;2.67;;
66523;SDS011;53350;52.210;5.160;2023-05-24T14:07:57;9.40;;;2.53;;
66523;SDS011;53350;52.210;5.160;2023-05-24T14:10:31;7.82;;;2.20;;
66523;SDS011;53350;52.210;5.160;2023-05-24T14:13:00;8.23;;;2.38;;
66523;SDS011;53350;52.210;5.160;2023-05-24T14:15:27;12.40;;;2.97;;
66523;SDS011;53350;52.210;5.160;2023-05-24T14:17:53;10.95;;;3.28;;
66523;SDS011;53350;52.210;5.160;2023-05-24T14:20:20;12.93;;;2.50;;
66523;SDS011;53350;52.210;5.160;2023-05-24T14:22:47;11.55;;;2.92;;
66523;SDS011;53350;52.210;5.160;2023-05-24T14:25:13;14.07;;;2.67;;
66523;SDS011;53350;52.210;5.160;2023-05-24T14:27:41;9.30;;;2.35;;
66523;SDS011;53350;52.210;5.160;2023-05-24T14:30:09;11.13;;;2.75;;
66523;SDS011;53350;52.210;5.160;2023-05-24T14:32:36;10.93;;;2.65;;
66523;SDS011;53350;52.210;5.160;2023-05-24T14:35:03;9.13;;;2.40;;
66523;SDS011;53350;52.210;5.160;2023-05-24T14:37:30;10.82;;;2.55;;
66523;SDS011;53350;52.210;5.160;2023-05-24T14:39:57;10.13;;;2.13;;
66523;SDS011;53350;52.210;5.160;2023-05-24T14:42:23;15.25;;;2.85;;
66523;SDS011;53350;52.210;5.160;2023-05-24T14:44:51;10.25;;;2.28;;
66523;SDS011;53350;52.210;5.160;2023-05-24T14:47:17;11.13;;;2.67;;
66523;SDS011;53350;52.210;5.160;2023-05-24T14:49:44;11.57;;;2.17;;
66523;SDS011;53350;52.210;5.160;2023-05-24T14:52:10;10.70;;;2.38;;